Strona główna
METAR-TAF:

METAR-TAF

Lotnisko :

Port lotniczy Mauritius

Mauritius, Mauritius

Szerokość geograficzna: 20-26S, Długość geograficzna: 057-40E, wysokość: 55 m

Aktualna obserwacja pogody

Raport powstał 29 minut temu, godzina 18:00 UTC
Wiatr 1 kt od zachodnio-południowy zachód
Temperatura 22°C
Wilgotność 83%
Ciśnienie 1021 hPa
Widzialność 10 km lub więcej
Rozproszone chmury na wysokości 1800 ft

METAR: FIMP 191800Z 24001KT 9999 SCT018 22/19 Q1021

czas: 22:29 (18:29 UTC)

Prognoza

Raport powstał 1 godzina i 9 minut temu, godzina 17:20 UTC
Prognoza ważna od 19 godzina 18 UTC do 21 godzina 00 UTC
Wiatr 3 kt od południowo-południowy wschód
Widzialność 10 km lub więcej
Rozproszone chmury na wysokości 1800 ft
Stopniowe zmiany
od 19 godzina 18 UTC do 19 godzina 20 UTC
Wiatr 3 kt od północno-północny zachód
Stopniowe zmiany
od 20 godzina 06 UTC do 20 godzina 08 UTC
Wiatr 10 kt od południowy wschód

TAF: FIMP 191720Z 1918/2100 16003KT 9999 SCT018 BECMG 1918/1920 33003KT BECMG 2006/2008 14010KT

Obserwacja i prognoza pogody dla ponad 4000 lotnisk (raport METAR i TAF).

Dostępne stacje oznaczono żółtymi i czerwonymi punktami na mapie.

Najedź kursorem aby zobaczyć nazwę stacji.

Kliknij aby zobaczyć obserwacje i prognozy pogody.

Aby zmienić mapę: kliknij na zielony przycisk z czarnym krzyżykiem, aby powiększyć; na zielony przycisk z myślnikiem, aby pomniejszyć; na zielone strzałki, aby przejść do map sąsiednich.


METAR-TAF: